Time;durP1;ratioP1;P1;durP2;ratioP2;P2;SDS_P1;SDS_P2;PMS_P1;PMS_P2;Temp;Humidity;BMP_temperature;BMP_pressure;BME280_temperature;BME280_humidity;BME280_pressure;Samples;Min_cycle;Max_cycle;Signal;HPM_P1;HPM_P2
2021/12/27 00:01:25;;;;;;;21.47;4.13;;;20.10;74.20;;;;;;5013644;28;20065;-68
2021/12/27 00:03:53;;;;;;;11.75;2.92;;;20.20;74.60;;;;;;5030567;28;20040;-67
2021/12/27 00:06:20;;;;;;;13.15;2.85;;;20.20;73.90;;;;;;5031337;28;20375;-68
2021/12/27 00:08:47;;;;;;;11.55;2.95;;;20.20;73.40;;;;;;5030760;28;20056;-66
2021/12/27 00:11:14;;;;;;;12.43;2.83;;;20.30;73.10;;;;;;5031391;28;20040;-66
2021/12/27 00:13:41;;;;;;;13.45;2.60;;;20.30;74.00;;;;;;5030780;28;20030;-67
2021/12/27 00:16:09;;;;;;;16.85;3.08;;;20.30;73.90;;;;;;5013530;28;20129;-67
2021/12/27 00:18:37;;;;;;;15.07;3.08;;;20.30;72.30;;;;;;5030872;28;20918;-67
2021/12/27 00:21:04;;;;;;;15.55;2.97;;;20.30;72.40;;;;;;5000385;28;20040;-67
2021/12/27 00:23:31;;;;;;;12.23;2.80;;;20.40;72.40;;;;;;5016863;28;20480;-67
2021/12/27 00:25:59;;;;;;;13.75;3.05;;;20.40;71.50;;;;;;5034849;28;20034;-67
2021/12/27 00:28:27;;;;;;;15.20;2.60;;;20.40;70.60;;;;;;5034795;28;20069;-67
2021/12/27 00:30:54;;;;;;;13.35;2.72;;;20.40;70.10;;;;;;5000625;28;20033;-66
2021/12/27 00:33:21;;;;;;;13.85;2.47;;;20.50;70.10;;;;;;5034381;28;20116;-67
2021/12/27 00:35:49;;;;;;;15.80;2.92;;;20.40;69.60;;;;;;5034467;28;20037;-66
2021/12/27 00:38:16;;;;;;;12.27;2.40;;;20.50;70.00;;;;;;5034245;28;20037;-67
2021/12/27 00:40:43;;;;;;;21.45;3.25;;;20.60;70.40;;;;;;5016759;28;20506;-66
2021/12/27 00:43:10;;;;;;;15.73;3.33;;;20.60;70.10;;;;;;5032670;28;20487;-68
2021/12/27 00:45:38;;;;;;;11.55;2.65;;;20.60;71.30;;;;;;5034473;28;20364;-66
2021/12/27 00:48:05;;;;;;;17.67;3.78;;;20.70;70.10;;;;;;5033945;28;20053;-67
2021/12/27 00:50:33;;;;;;;16.42;3.00;;;20.80;71.80;;;;;;5016379;28;20038;-66
2021/12/27 00:53:00;;;;;;;15.23;3.17;;;20.80;71.60;;;;;;5034038;28;20151;-67
2021/12/27 00:55:27;;;;;;;19.15;3.42;;;20.90;71.00;;;;;;5034174;28;20040;-67
2021/12/27 00:57:54;;;;;;;12.98;2.95;;;20.90;70.00;;;;;;5034233;28;20034;-67
2021/12/27 01:00:23;;;;;;;14.85;3.17;;;20.90;70.80;;;;;;5033651;28;20048;-66
2021/12/27 01:02:50;;;;;;;19.60;3.50;;;20.90;70.20;;;;;;5033708;28;20575;-66
2021/12/27 01:05:17;;;;;;;22.35;3.67;;;21.00;70.50;;;;;;5016502;28;20388;-67
2021/12/27 01:07:45;;;;;;;17.13;2.83;;;21.00;69.80;;;;;;5033981;28;20115;-67
2021/12/27 01:10:34;;;;;;;15.60;3.05;;;21.10;69.70;;;;;;5034057;28;20117;-68
2021/12/27 01:13:06;;;;;;;19.75;4.22;;;21.20;69.60;;;;;;5033912;28;20094;-68
2021/12/27 01:18:06;;;;;;;12.18;3.47;;;21.20;68.50;;;;;;5034501;28;20040;-67
2021/12/27 01:20:36;;;;;;;13.52;3.00;;;21.00;68.40;;;;;;5033689;28;20052;-69
2021/12/27 01:23:04;;;;;;;14.02;3.20;;;20.90;69.80;;;;;;5016806;28;20078;-68
2021/12/27 01:25:31;;;;;;;14.82;3.33;;;21.00;69.40;;;;;;5033985;28;20146;-68
2021/12/27 01:27:58;;;;;;;16.63;2.92;;;21.10;68.90;;;;;;5033377;28;20049;-68
2021/12/27 01:30:25;;;;;;;16.83;3.72;;;21.10;68.20;;;;;;5015495;28;20075;-68
2021/12/27 01:32:57;;;;;;;14.63;2.95;;;21.10;68.60;;;;;;5033578;28;20037;-68
2021/12/27 01:35:24;;;;;;;13.68;2.63;;;21.20;67.50;;;;;;5033316;28;20045;-69
2021/12/27 01:37:52;;;;;;;22.27;3.25;;;21.30;67.20;;;;;;5015539;28;20063;-69
2021/12/27 01:40:22;;;;;;;18.02;3.25;;;21.30;66.30;;;;;;4999329;28;20113;-68
2021/12/27 01:43:09;;;;;;;14.50;2.75;;;21.30;66.80;;;;;;5033149;28;20033;-68
2021/12/27 01:45:39;;;;;;;15.43;3.22;;;21.40;66.50;;;;;;5033172;28;20116;-68
2021/12/27 01:48:07;;;;;;;15.50;3.00;;;21.50;65.30;;;;;;5033413;28;20116;-68
2021/12/27 01:50:36;;;;;;;15.38;3.42;;;21.40;64.90;;;;;;5015660;28;20103;-67
2021/12/27 01:53:04;;;;;;;9.40;2.87;;;21.30;65.40;;;;;;5032791;28;20037;-68
2021/12/27 01:55:31;;;;;;;12.90;2.65;;;21.30;66.20;;;;;;5033083;28;20037;-68
2021/12/27 01:57:58;;;;;;;15.68;2.72;;;21.40;65.10;;;;;;5032768;28;20080;-68
2021/12/27 02:00:26;;;;;;;16.73;3.13;;;21.60;65.00;;;;;;5032905;28;20037;-67
2021/12/27 02:02:53;;;;;;;15.52;3.15;;;21.60;64.70;;;;;;5032528;28;20056;-67
2021/12/27 02:05:20;;;;;;;15.50;2.85;;;21.40;64.60;;;;;;5032778;28;20030;-66
2021/12/27 02:07:47;;;;;;;12.63;3.10;;;21.50;65.40;;;;;;5032561;28;20055;-69
2021/12/27 02:10:14;;;;;;;20.05;3.13;;;21.50;66.10;;;;;;5033097;28;20030;-68
2021/12/27 02:12:44;;;;;;;16.38;2.92;;;21.50;66.10;;;;;;5014889;28;20507;-65
2021/12/27 02:15:11;;;;;;;14.82;2.97;;;21.60;65.60;;;;;;5014793;28;20037;-67
2021/12/27 02:17:39;;;;;;;11.05;3.03;;;21.60;65.80;;;;;;5032247;28;20155;-67
2021/12/27 02:20:08;;;;;;;13.75;2.92;;;21.60;66.40;;;;;;5032263;28;20036;-67
2021/12/27 02:22:37;;;;;;;12.82;2.97;;;21.50;66.00;;;;;;5032741;28;20076;-66
2021/12/27 02:25:06;;;;;;;18.60;3.35;;;21.50;67.90;;;;;;5032536;28;20036;-67
2021/12/27 02:27:33;;;;;;;15.68;2.67;;;21.60;67.40;;;;;;5032230;28;20100;-67
2021/12/27 02:30:01;;;;;;;16.40;3.00;;;21.50;67.90;;;;;;5032212;28;20148;-67
2021/12/27 02:32:28;;;;;;;13.40;2.35;;;21.50;66.70;;;;;;5014795;28;20041;-67
2021/12/27 02:34:55;;;;;;;10.85;2.78;;;21.50;67.50;;;;;;5032023;28;20041;-68
2021/12/27 02:37:22;;;;;;;11.75;2.78;;;21.50;66.70;;;;;;5032246;28;20033;-67
2021/12/27 02:39:49;;;;;;;14.88;3.45;;;21.40;66.90;;;;;;5014649;28;20080;-67
2021/12/27 02:42:18;;;;;;;14.60;2.90;;;21.40;68.60;;;;;;5014187;28;20032;-67
2021/12/27 02:44:45;;;;;;;13.40;2.70;;;21.60;68.10;;;;;;5032268;28;20045;-68
2021/12/27 02:47:14;;;;;;;12.93;2.33;;;21.50;67.80;;;;;;5014381;28;20397;-68
2021/12/27 02:49:41;;;;;;;12.05;2.45;;;21.40;68.10;;;;;;5014658;28;20124;-68
2021/12/27 02:52:09;;;;;;;11.40;2.33;;;21.40;67.40;;;;;;5014063;28;20048;-67
2021/12/27 02:54:36;;;;;;;10.40;2.40;;;21.40;68.10;;;;;;5014576;28;20393;-68
2021/12/27 02:57:03;;;;;;;9.70;2.53;;;21.50;68.30;;;;;;5031541;28;20164;-67
2021/12/27 02:59:31;;;;;;;14.80;2.47;;;21.50;67.60;;;;;;5013908;28;20049;-66
2021/12/27 03:01:58;;;;;;;16.33;4.30;;;21.40;67.60;;;;;;5031902;28;20040;-67
2021/12/27 03:04:25;;;;;;;6.93;2.33;;;21.40;67.60;;;;;;5031958;28;20041;-67
2021/12/27 03:06:52;;;;;;;10.35;2.45;;;21.40;68.00;;;;;;5014084;28;20479;-67
2021/12/27 03:09:19;;;;;;;8.02;1.70;;;21.30;67.70;;;;;;5031453;28;20037;-68
2021/12/27 03:11:46;;;;;;;9.82;2.00;;;21.40;67.10;;;;;;5013860;28;20049;-67
2021/12/27 03:14:13;;;;;;;11.90;2.28;;;21.30;67.40;;;;;;5031381;28;20047;-67
2021/12/27 03:16:41;;;;;;;8.35;2.20;;;21.30;67.70;;;;;;5031350;28;20029;-68
2021/12/27 03:19:08;;;;;;;9.50;2.10;;;21.20;68.50;;;;;;5031142;28;20112;-68
2021/12/27 03:21:35;;;;;;;9.85;2.13;;;21.20;67.80;;;;;;5031272;28;20087;-66
2021/12/27 03:24:02;;;;;;;6.95;2.22;;;21.20;68.30;;;;;;5031550;28;20137;-67
2021/12/27 03:26:29;;;;;;;7.18;1.63;;;21.20;67.20;;;;;;5014107;28;20109;-68
2021/12/27 03:28:56;;;;;;;9.35;2.30;;;21.20;67.70;;;;;;5031735;28;20053;-67
2021/12/27 03:31:24;;;;;;;7.72;1.85;;;21.20;67.70;;;;;;5031451;28;20029;-68
2021/12/27 03:33:51;;;;;;;9.32;1.98;;;21.20;67.80;;;;;;5013913;28;20054;-68
2021/12/27 03:36:23;;;;;;;10.90;2.05;;;21.20;67.70;;;;;;5031570;28;20053;-67
2021/12/27 03:38:52;;;;;;;7.45;1.98;;;21.20;66.50;;;;;;5031642;28;20030;-67
2021/12/27 03:41:24;;;;;;;8.40;1.95;;;21.20;67.00;;;;;;5030177;28;20392;-67
2021/12/27 03:43:51;;;;;;;7.03;1.77;;;21.10;67.70;;;;;;5031716;28;20080;-68
2021/12/27 03:46:18;;;;;;;8.30;1.73;;;21.20;68.90;;;;;;5031904;28;20037;-67
2021/12/27 03:48:45;;;;;;;5.35;1.63;;;21.20;68.90;;;;;;5031548;28;20049;-68
2021/12/27 03:51:12;;;;;;;11.73;2.00;;;21.20;68.50;;;;;;5031342;28;20037;-68
2021/12/27 03:53:39;;;;;;;9.43;1.52;;;21.20;69.10;;;;;;5014437;28;20160;-67
2021/12/27 03:56:08;;;;;;;6.00;1.70;;;21.30;69.90;;;;;;5035466;28;20061;-67
2021/12/27 03:58:53;;;;;;;7.43;1.90;;;21.30;69.30;;;;;;5035492;28;20518;-67
2021/12/27 04:01:21;;;;;;;8.57;1.98;;;21.30;69.60;;;;;;5020420;28;20112;-67
2021/12/27 04:03:50;;;;;;;7.50;1.83;;;21.30;70.40;;;;;;5001910;28;20044;-68
2021/12/27 04:06:18;;;;;;;10.10;1.50;;;21.40;70.40;;;;;;5035388;28;20308;-68
2021/12/27 04:08:45;;;;;;;6.63;1.40;;;21.30;70.00;;;;;;5035375;28;20068;-67
2021/12/27 04:11:12;;;;;;;6.88;1.30;;;21.30;69.80;;;;;;5035009;28;20042;-67
2021/12/27 04:13:40;;;;;;;5.38;1.50;;;21.40;69.20;;;;;;5035025;28;20045;-67
2021/12/27 04:16:07;;;;;;;7.03;1.42;;;21.30;69.30;;;;;;5033737;28;20061;-66
2021/12/27 04:18:34;;;;;;;9.65;1.55;;;21.30;69.90;;;;;;5035012;28;20542;-66
2021/12/27 04:21:01;;;;;;;7.97;1.27;;;21.40;70.50;;;;;;5034996;28;20069;-67
2021/12/27 04:23:28;;;;;;;2.85;1.10;;;21.50;69.40;;;;;;5034834;28;20052;-67
2021/12/27 04:25:55;;;;;;;5.25;1.38;;;21.50;69.50;;;;;;5034946;28;20037;-67
2021/12/27 04:28:24;;;;;;;9.20;1.52;;;21.50;69.80;;;;;;5035085;28;20041;-68
2021/12/27 04:30:51;;;;;;;6.70;1.35;;;21.60;69.00;;;;;;5001204;28;20067;-67
2021/12/27 04:33:18;;;;;;;4.90;1.38;;;21.60;69.10;;;;;;5034745;28;20168;-67
2021/12/27 04:35:45;;;;;;;2.80;1.27;;;21.70;70.00;;;;;;5017392;28;20041;-68
2021/12/27 04:38:13;;;;;;;5.60;1.25;;;21.70;70.50;;;;;;5034491;28;20391;-68
2021/12/27 04:40:41;;;;;;;7.78;1.30;;;21.70;70.90;;;;;;5034173;28;20484;-67
2021/12/27 04:43:10;;;;;;;7.00;3.35;;;21.60;70.10;;;;;;5034398;28;20120;-67
2021/12/27 04:45:38;;;;;;;2.47;1.08;;;21.50;70.70;;;;;;5034324;28;20391;-67
2021/12/27 04:48:05;;;;;;;4.63;1.30;;;21.40;71.80;;;;;;5033805;28;20141;-67
2021/12/27 04:50:33;;;;;;;5.47;1.00;;;21.40;72.90;;;;;;5033906;28;20029;-67
2021/12/27 04:53:00;;;;;;;3.97;1.13;;;21.40;72.70;;;;;;5034125;28;20431;-67
2021/12/27 04:55:27;;;;;;;5.93;1.40;;;21.40;74.40;;;;;;5016844;28;20037;-67
2021/12/27 04:57:54;;;;;;;8.05;1.63;;;21.40;73.90;;;;;;5016395;28;20044;-67
2021/12/27 05:00:22;;;;;;;6.07;1.40;;;21.40;74.20;;;;;;5034023;28;20025;-67
2021/12/27 05:02:49;;;;;;;6.13;1.60;;;21.40;73.70;;;;;;5033843;28;20455;-67
2021/12/27 05:05:16;;;;;;;6.95;1.40;;;21.40;74.00;;;;;;5015717;28;20623;-67
2021/12/27 05:07:47;;;;;;;7.85;1.60;;;21.50;74.80;;;;;;5033828;28;20049;-66
2021/12/27 05:10:16;;;;;;;8.07;1.73;;;21.50;75.20;;;;;;5033916;28;20033;-66
2021/12/27 05:12:44;;;;;;;9.63;1.40;;;21.50;75.20;;;;;;5034114;28;20045;-66
2021/12/27 05:15:11;;;;;;;5.72;1.52;;;21.50;75.20;;;;;;5034020;28;20099;-66
2021/12/27 05:17:38;;;;;;;6.60;1.33;;;21.30;78.80;;;;;;5033836;28;20547;-67
2021/12/27 05:20:08;;;;;;;7.30;1.80;;;20.90;82.10;;;;;;5016218;28;20042;-67
2021/12/27 05:22:35;;;;;;;10.35;1.90;;;20.30;83.80;;;;;;5034010;28;20064;-67
2021/12/27 05:25:03;;;;;;;6.88;1.65;;;20.10;85.80;;;;;;5033721;28;20104;-67
2021/12/27 05:27:30;;;;;;;6.68;1.70;;;19.70;86.30;;;;;;5015785;28;20034;-67
2021/12/27 05:29:58;;;;;;;8.90;1.67;;;19.70;87.60;;;;;;5015856;28;20041;-67
2021/12/27 05:32:25;;;;;;;8.32;1.88;;;19.50;87.30;;;;;;5033600;28;20060;-68
2021/12/27 05:34:52;;;;;;;6.90;1.70;;;19.40;88.20;;;;;;5033024;28;20119;-67
2021/12/27 05:37:19;;;;;;;5.82;1.70;;;19.30;88.80;;;;;;5033493;28;20116;-67
2021/12/27 05:39:48;;;;;;;6.80;1.70;;;19.20;89.20;;;;;;5033244;28;20052;-67
2021/12/27 05:42:15;;;;;;;8.10;1.95;;;19.20;89.10;;;;;;5015947;28;20037;-67
2021/12/27 05:44:42;;;;;;;8.40;1.92;;;19.20;89.50;;;;;;5033149;28;20056;-66
2021/12/27 05:47:09;;;;;;;11.20;2.13;;;19.20;90.30;;;;;;5033231;28;20164;-68
2021/12/27 05:49:39;;;;;;;11.63;2.38;;;19.20;90.10;;;;;;5033078;28;20057;-66
2021/12/27 05:52:06;;;;;;;13.18;2.42;;;19.20;89.60;;;;;;5033269;28;20032;-67
2021/12/27 05:54:33;;;;;;;14.57;2.67;;;19.20;89.70;;;;;;5033107;28;20049;-67
2021/12/27 05:57:01;;;;;;;18.13;2.85;;;19.10;88.90;;;;;;5033208;28;20057;-67
2021/12/27 05:59:28;;;;;;;18.73;3.15;;;19.10;89.80;;;;;;5033205;28;20664;-66
2021/12/27 06:01:56;;;;;;;13.48;2.40;;;19.10;90.20;;;;;;5033216;28;20345;-66
2021/12/27 06:04:23;;;;;;;15.95;2.38;;;19.20;90.80;;;;;;5032916;28;20045;-67
2021/12/27 06:06:50;;;;;;;12.40;2.05;;;19.00;89.00;;;;;;5033062;28;20045;-67
2021/12/27 06:09:17;;;;;;;12.55;2.30;;;18.80;89.10;;;;;;5032677;28;20551;-67
2021/12/27 06:11:45;;;;;;;11.02;2.28;;;18.80;89.90;;;;;;5032843;28;20036;-68
2021/12/27 06:14:12;;;;;;;9.77;2.40;;;18.70;90.40;;;;;;5032671;28;20037;-67
2021/12/27 06:16:40;;;;;;;11.40;2.40;;;18.70;90.10;;;;;;5032290;28;20029;-67
2021/12/27 06:19:07;;;;;;;10.80;2.00;;;18.70;90.90;;;;;;5032222;28;20392;-67
2021/12/27 06:21:34;;;;;;;16.20;2.85;;;18.70;90.40;;;;;;5032369;28;20036;-67
2021/12/27 06:24:01;;;;;;;15.05;2.70;;;18.70;90.30;;;;;;5032572;28;20048;-67
2021/12/27 06:26:29;;;;;;;13.45;2.13;;;18.70;90.20;;;;;;5032628;28;20116;-68
2021/12/27 06:28:56;;;;;;;11.98;2.58;;;18.70;90.10;;;;;;5014878;28;20048;-67
2021/12/27 06:31:23;;;;;;;13.15;2.08;;;18.70;90.00;;;;;;5032546;28;20029;-67
2021/12/27 06:33:50;;;;;;;10.85;2.33;;;18.80;90.30;;;;;;5032123;28;20065;-67
2021/12/27 06:36:18;;;;;;;10.70;2.42;;;18.80;90.10;;;;;;5032553;28;20033;-67
2021/12/27 06:38:45;;;;;;;10.80;2.45;;;18.80;90.30;;;;;;5032100;28;20038;-67
2021/12/27 06:41:12;;;;;;;16.85;2.90;;;18.70;89.50;;;;;;5032803;28;20040;-67
2021/12/27 06:43:39;;;;;;;10.95;2.15;;;18.70;88.70;;;;;;5032471;28;20116;-67
2021/12/27 06:46:06;;;;;;;13.80;2.80;;;18.50;89.50;;;;;;5032260;28;20502;-67
2021/12/27 06:48:33;;;;;;;10.23;2.05;;;18.60;89.40;;;;;;5031759;28;20060;-67
2021/12/27 06:51:00;;;;;;;13.45;2.28;;;18.60;89.20;;;;;;5014328;28;20038;-67
2021/12/27 06:53:31;;;;;;;11.13;2.90;;;18.60;89.60;;;;;;5032224;28;20033;-68
2021/12/27 06:55:57;;;;;;;;;;;18.60;88.70;;;;;;5032610;28;20048;-67
2021/12/27 06:58:25;;;;;;;11.85;2.28;;;18.50;88.70;;;;;;5032007;28;19905;-67
2021/12/27 07:00:52;;;;;;;13.57;2.63;;;18.60;89.60;;;;;;5031997;28;20384;-68
2021/12/27 07:03:19;;;;;;;11.80;2.33;;;18.60;89.60;;;;;;5014611;28;20092;-67
2021/12/27 07:05:48;;;;;;;14.50;2.85;;;18.50;89.10;;;;;;5031936;28;20033;-68
2021/12/27 07:08:16;;;;;;;13.32;2.83;;;18.50;89.30;;;;;;5031942;28;20049;-67
2021/12/27 07:10:43;;;;;;;13.55;2.30;;;18.50;89.40;;;;;;5031771;28;20029;-67
2021/12/27 07:13:10;;;;;;;15.52;2.92;;;18.50;89.60;;;;;;5031669;28;20061;-68
2021/12/27 07:15:41;;;;;;;14.27;2.40;;;18.60;89.50;;;;;;5031673;28;20040;-67
2021/12/27 07:18:20;;;;;;;10.45;2.35;;;18.60;89.70;;;;;;5032224;28;20076;-68
2021/12/27 07:20:47;;;;;;;18.50;8.65;;;18.70;89.70;;;;;;5031726;28;20042;-68
2021/12/27 07:23:15;;;;;;;14.50;2.92;;;18.70;89.60;;;;;;5031855;28;20385;-68
2021/12/27 07:25:42;;;;;;;20.05;2.78;;;18.60;89.20;;;;;;5031774;28;20037;-67
2021/12/27 07:28:09;;;;;;;19.67;2.80;;;18.50;89.60;;;;;;5030990;28;20048;-68
2021/12/27 07:30:36;;;;;;;23.60;3.17;;;18.50;89.60;;;;;;5013854;28;20506;-68
2021/12/27 07:33:03;;;;;;;15.15;2.63;;;18.50;89.70;;;;;;5031792;28;20463;-68
2021/12/27 07:35:30;;;;;;;18.05;2.70;;;18.50;90.00;;;;;;5031639;28;20037;-68
2021/12/27 07:37:57;;;;;;;10.43;2.30;;;18.50;89.20;;;;;;5031214;28;20037;-68
2021/12/27 07:40:25;;;;;;;11.57;2.30;;;18.40;88.70;;;;;;5031321;28;20344;-68
2021/12/27 07:42:52;;;;;;;11.88;2.65;;;18.40;89.10;;;;;;5031321;28;20479;-67
2021/12/27 07:45:19;;;;;;;11.98;2.50;;;18.40;89.50;;;;;;5031456;28;20033;-67
2021/12/27 07:47:46;;;;;;;14.75;2.60;;;18.40;88.20;;;;;;5031420;28;20037;-68
2021/12/27 07:50:13;;;;;;;17.23;2.17;;;18.40;88.30;;;;;;5031267;28;20427;-67
2021/12/27 07:52:40;;;;;;;15.70;2.45;;;18.50;87.90;;;;;;5031464;28;20044;-67
2021/12/27 07:55:08;;;;;;;7.25;1.92;;;18.50;87.80;;;;;;5031255;28;20045;-68
2021/12/27 07:57:35;;;;;;;9.25;2.00;;;18.50;86.50;;;;;;5031483;28;20431;-68
2021/12/27 08:00:06;;;;;;;10.45;1.80;;;18.60;86.80;;;;;;5031335;28;20476;-67
2021/12/27 08:02:33;;;;;;;12.23;3.92;;;18.70;86.70;;;;;;5013686;28;20025;-67
2021/12/27 08:05:00;;;;;;;14.88;2.40;;;18.70;86.50;;;;;;5030871;28;20041;-67
2021/12/27 08:07:28;;;;;;;6.65;2.22;;;18.70;85.60;;;;;;4996978;28;20543;-67
2021/12/27 08:09:55;;;;;;;10.63;2.38;;;18.80;85.60;;;;;;5030881;28;20043;-68
2021/12/27 08:12:22;;;;;;;13.30;2.25;;;18.80;86.00;;;;;;5031138;28;20026;-68
2021/12/27 08:14:49;;;;;;;8.30;2.20;;;18.80;85.80;;;;;;5029560;28;20054;-68
2021/12/27 08:17:16;;;;;;;10.52;2.67;;;18.90;86.30;;;;;;5031214;28;20108;-68
2021/12/27 08:19:45;;;;;;;12.40;2.15;;;19.00;86.70;;;;;;5030832;28;20072;-67
2021/12/27 08:22:12;;;;;;;6.88;2.05;;;18.90;86.00;;;;;;5030949;28;20038;-68
2021/12/27 08:24:39;;;;;;;12.27;2.58;;;18.80;86.20;;;;;;5030761;28;20377;-68
2021/12/27 08:27:07;;;;;;;13.70;2.50;;;18.80;86.30;;;;;;5031078;28;20439;-67
2021/12/27 08:29:34;;;;;;;12.90;2.60;;;18.80;86.30;;;;;;5030898;28;20077;-68
2021/12/27 08:32:02;;;;;;;11.77;2.10;;;18.80;85.60;;;;;;5030870;28;20057;-68
2021/12/27 08:34:31;;;;;;;10.15;1.95;;;18.80;86.70;;;;;;4997066;28;20072;-67
2021/12/27 08:36:59;;;;;;;10.43;2.30;;;18.60;86.70;;;;;;5030900;28;20030;-68
2021/12/27 08:39:26;;;;;;;9.95;1.98;;;18.50;87.40;;;;;;5030846;28;20192;-67
2021/12/27 08:41:53;;;;;;;10.57;2.58;;;18.40;87.90;;;;;;5033630;28;20034;-68
2021/12/27 08:44:21;;;;;;;10.32;2.58;;;18.30;88.10;;;;;;5016876;28;20089;-68
2021/12/27 08:46:48;;;;;;;11.90;2.88;;;18.30;89.00;;;;;;5034541;28;20116;-68
2021/12/27 08:49:15;;;;;;;12.57;2.67;;;18.40;88.90;;;;;;5034399;28;20056;-67
2021/12/27 08:51:43;;;;;;;11.00;2.35;;;18.40;89.20;;;;;;5034492;28;20345;-67
2021/12/27 08:54:11;;;;;;;11.63;2.17;;;18.40;89.50;;;;;;5034527;28;20038;-68
2021/12/27 08:56:38;;;;;;;12.82;2.53;;;18.30;89.20;;;;;;5034594;28;20108;-68
2021/12/27 08:59:06;;;;;;;16.50;2.67;;;18.30;89.50;;;;;;5034367;28;20386;-68
2021/12/27 09:01:33;;;;;;;14.63;5.55;;;18.30;89.90;;;;;;5016597;28;20538;-68
2021/12/27 09:04:00;;;;;;;19.67;5.43;;;18.30;90.30;;;;;;5016761;28;20040;-68
2021/12/27 09:06:27;;;;;;;17.90;6.15;;;18.30;90.20;;;;;;5034361;28;20091;-67
2021/12/27 09:08:54;;;;;;;16.88;3.78;;;18.40;90.40;;;;;;5034139;28;20064;-68
2021/12/27 09:11:22;;;;;;;17.88;3.35;;;18.30;90.00;;;;;;5034313;28;20104;-68
2021/12/27 09:13:49;;;;;;;15.63;3.05;;;18.40;90.70;;;;;;5034020;28;20112;-67
2021/12/27 09:16:16;;;;;;;17.60;2.85;;;18.40;90.80;;;;;;5033893;28;20048;-68
2021/12/27 09:18:43;;;;;;;12.85;3.00;;;18.40;90.80;;;;;;5033877;28;20065;-68
2021/12/27 09:21:10;;;;;;;15.70;2.67;;;18.50;91.20;;;;;;5016616;28;20036;-67
2021/12/27 09:23:37;;;;;;;20.30;4.25;;;18.50;90.50;;;;;;5034165;28;20034;-67
2021/12/27 09:26:05;;;;;;;15.90;2.90;;;18.40;90.60;;;;;;5033865;28;20392;-68
2021/12/27 09:28:32;;;;;;;11.02;2.53;;;18.30;90.60;;;;;;5033699;28;20045;-68
2021/12/27 09:31:00;;;;;;;12.90;2.78;;;18.10;90.30;;;;;;5033456;28;20060;-67
2021/12/27 09:33:28;;;;;;;9.25;2.20;;;18.10;90.80;;;;;;5033330;28;20049;-67
2021/12/27 09:35:55;;;;;;;9.57;1.83;;;18.00;91.10;;;;;;5033586;28;20046;-68
2021/12/27 09:38:22;;;;;;;10.82;2.03;;;17.80;90.60;;;;;;5033415;28;20462;-67
2021/12/27 09:40:49;;;;;;;10.13;2.47;;;17.70;90.40;;;;;;5033240;28;20056;-67
2021/12/27 09:43:16;;;;;;;14.13;2.90;;;17.70;90.80;;;;;;5033466;28;20120;-67
2021/12/27 09:45:44;;;;;;;17.40;2.40;;;17.70;91.20;;;;;;5033730;28;20479;-67
2021/12/27 09:48:13;;;;;;;13.18;2.80;;;17.70;91.40;;;;;;5015741;28;20092;-67
2021/12/27 09:50:44;;;;;;;13.80;2.20;;;17.70;91.90;;;;;;5015884;28;20025;-68
2021/12/27 09:53:12;;;;;;;14.43;2.58;;;17.70;92.10;;;;;;5033115;28;20099;-68
2021/12/27 09:55:39;;;;;;;11.85;2.15;;;17.70;91.80;;;;;;5015998;28;20030;-67
2021/12/27 09:58:06;;;;;;;17.52;4.30;;;17.80;91.80;;;;;;5031959;28;20380;-68
2021/12/27 10:00:34;;;;;;;15.38;3.55;;;17.80;91.80;;;;;;5015657;28;20123;-67
2021/12/27 10:03:01;;;;;;;16.35;4.22;;;17.80;91.60;;;;;;5033149;28;20041;-66
2021/12/27 10:05:29;;;;;;;16.38;2.50;;;17.80;91.80;;;;;;5015628;28;20037;-67
2021/12/27 10:07:56;;;;;;;11.18;2.40;;;17.90;91.80;;;;;;5015324;28;20049;-67
2021/12/27 10:10:23;;;;;;;14.95;2.35;;;17.90;91.80;;;;;;5015311;28;20072;-67
2021/12/27 10:12:51;;;;;;;14.18;2.53;;;18.00;91.80;;;;;;5032980;28;20033;-67
2021/12/27 10:15:20;;;;;;;11.60;2.75;;;17.90;92.30;;;;;;5033236;28;20029;-67
2021/12/27 10:17:48;;;;;;;12.32;2.65;;;17.90;92.40;;;;;;4999249;28;20034;-67
2021/12/27 10:20:17;;;;;;;12.23;2.63;;;17.90;92.70;;;;;;5015627;28;20049;-66
2021/12/27 10:22:46;;;;;;;14.87;2.33;;;17.90;92.50;;;;;;5032993;28;20030;-67
2021/12/27 10:25:21;;;;;;;10.85;2.67;;;17.90;92.50;;;;;;5032870;28;20044;-67
2021/12/27 10:27:50;;;;;;;11.55;2.17;;;17.90;92.40;;;;;;5032600;28;20072;-66
2021/12/27 10:30:18;;;;;;;11.07;2.17;;;17.90;92.60;;;;;;5032455;28;20091;-66
2021/12/27 10:33:00;;;;;;;12.23;2.20;;;18.00;92.80;;;;;;5032674;28;20025;-67
2021/12/27 10:35:35;;;;;;;13.18;2.35;;;18.00;93.00;;;;;;5032521;28;20462;-67
2021/12/27 10:38:25;;;;;;;12.80;2.40;;;18.00;92.70;;;;;;5032685;28;20166;-67
2021/12/27 10:41:09;;;;;;;10.13;2.33;;;18.00;92.90;;;;;;5032320;28;20113;-66
2021/12/27 10:43:44;;;;;;;13.07;2.53;;;18.00;93.00;;;;;;5032558;28;20041;-66
2021/12/27 10:46:29;;;;;;;10.05;2.03;;;18.00;93.00;;;;;;5032389;28;20117;-66
2021/12/27 10:48:59;;;;;;;12.23;2.45;;;17.90;92.90;;;;;;5014671;28;20539;-66
2021/12/27 10:51:28;;;;;;;14.02;2.65;;;17.80;92.70;;;;;;5032412;28;20483;-67
2021/12/27 10:53:59;;;;;;;14.38;2.25;;;17.90;93.10;;;;;;5032329;28;20096;-66
2021/12/27 10:56:48;;;;;;;15.57;2.70;;;17.80;93.10;;;;;;5032020;28;20476;-66
2021/12/27 10:59:19;;;;;;;13.07;2.58;;;17.70;92.60;;;;;;5032163;28;20415;-68
2021/12/27 11:01:48;;;;;;;14.88;2.90;;;17.50;92.80;;;;;;5031943;28;20113;-67
2021/12/27 11:04:18;;;;;;;17.75;3.13;;;17.50;93.70;;;;;;5031771;28;20033;-66
2021/12/27 11:06:46;;;;;;;19.00;2.85;;;17.60;93.60;;;;;;5031959;28;20034;-66
2021/12/27 11:09:14;;;;;;;22.52;3.10;;;17.50;93.70;;;;;;5031420;28;20045;-67
2021/12/27 11:11:42;;;;;;;13.68;2.40;;;17.50;93.70;;;;;;5014499;28;20052;-66
2021/12/27 11:14:09;;;;;;;18.20;3.42;;;17.40;93.60;;;;;;5014830;28;20029;-66
2021/12/27 11:16:36;;;;;;;19.00;3.10;;;17.40;94.00;;;;;;5031762;28;20399;-65
2021/12/27 11:19:03;;;;;;;13.45;2.10;;;17.40;94.20;;;;;;5014378;28;20403;-65
2021/12/27 11:21:33;;;;;;;12.48;2.58;;;17.50;94.50;;;;;;5031869;28;20514;-66
2021/12/27 11:24:00;;;;;;;16.40;3.15;;;17.40;94.30;;;;;;5031801;28;20096;-66
2021/12/27 11:26:30;;;;;;;22.60;2.80;;;17.50;94.50;;;;;;5032019;28;20041;-66
2021/12/27 11:29:17;;;;;;;19.20;2.50;;;17.50;94.30;;;;;;5014313;28;20496;-67
2021/12/27 11:31:49;;;;;;;29.83;3.63;;;17.40;94.40;;;;;;5014184;28;20432;-67
2021/12/27 11:34:18;;;;;;;17.02;2.35;;;17.40;94.60;;;;;;5031501;28;20045;-67
2021/12/27 11:36:56;;;;;;;18.13;2.55;;;17.30;94.50;;;;;;5031526;28;20048;-67
2021/12/27 11:39:27;;;;;;;16.52;2.63;;;17.30;94.30;;;;;;5031311;28;20061;-66
2021/12/27 11:41:57;;;;;;;17.00;3.00;;;17.30;94.80;;;;;;5031644;28;20033;-67
2021/12/27 11:44:35;;;;;;;17.60;2.78;;;17.40;95.00;;;;;;5031760;28;20037;-67
2021/12/27 11:47:02;;;;;;;16.70;2.88;;;17.40;95.00;;;;;;5031612;28;20060;-66
2021/12/27 11:49:59;;;;;;;16.63;2.55;;;17.50;95.00;;;;;;5031446;28;20046;-67
2021/12/27 11:52:34;;;;;;;13.35;2.33;;;17.50;95.00;;;;;;5022436;28;20124;-66
2021/12/27 11:55:02;;;;;;;16.40;2.38;;;17.40;94.60;;;;;;5031342;28;20092;-66
2021/12/27 11:57:53;;;;;;;16.83;2.90;;;17.40;94.60;;;;;;5014103;28;20033;-66
2021/12/27 12:00:23;;;;;;;14.18;2.05;;;17.40;94.80;;;;;;5002435;28;20052;-66
2021/12/27 12:03:16;;;;;;;;;;;17.40;94.60;;;;;;5031891;28;20091;-66
2021/12/27 12:05:44;;;;;;;15.43;2.42;;;17.40;94.70;;;;;;5028442;28;19944;-65
2021/12/27 12:08:41;;;;;;;13.98;2.35;;;17.40;94.80;;;;;;5031301;28;20033;-65
2021/12/27 12:11:10;;;;;;;17.15;2.80;;;17.50;94.90;;;;;;5016277;28;20511;-66
2021/12/27 12:13:42;;;;;;;9.88;1.70;;;17.50;94.80;;;;;;5031172;28;20041;-66
2021/12/27 12:16:17;;;;;;;12.07;2.35;;;17.40;94.50;;;;;;5034673;28;20057;-65
2021/12/27 12:18:44;;;;;;;19.13;2.58;;;17.40;94.60;;;;;;5035128;28;20065;-66
2021/12/27 12:21:34;;;;;;;14.95;2.20;;;17.30;93.70;;;;;;5035038;28;20487;-65
2021/12/27 12:24:08;;;;;;;16.23;2.35;;;17.20;94.30;;;;;;5020793;28;20483;-66
2021/12/27 12:27:01;;;;;;;10.52;1.85;;;17.20;94.20;;;;;;5018074;28;20088;-66
2021/12/27 12:29:38;;;;;;;17.08;2.35;;;17.10;94.00;;;;;;5034715;28;20506;-66
2021/12/27 12:32:07;;;;;;;15.40;1.95;;;17.00;93.70;;;;;;5034980;28;20044;-66
2021/12/27 12:34:34;;;;;;;10.48;1.73;;;17.00;93.60;;;;;;5034916;28;20056;-66
2021/12/27 12:37:06;;;;;;;12.15;2.10;;;16.90;93.80;;;;;;5035123;28;20024;-66
2021/12/27 12:39:50;;;;;;;11.18;2.10;;;16.90;93.40;;;;;;5001336;28;20387;-66
2021/12/27 12:42:19;;;;;;;10.13;1.50;;;16.80;93.20;;;;;;5002776;28;20498;-67
2021/12/27 12:44:47;;;;;;;12.30;1.85;;;16.80;93.20;;;;;;5034810;28;20037;-66
2021/12/27 12:47:14;;;;;;;13.70;2.45;;;16.80;93.20;;;;;;5034790;28;20038;-66
2021/12/27 12:49:41;;;;;;;11.98;1.75;;;16.70;92.80;;;;;;5034530;28;20082;-66
2021/12/27 12:52:08;;;;;;;6.90;1.75;;;16.70;92.90;;;;;;5034591;28;20034;-66